createdAt,value
2018-07-23T00:00:35.927Z,22.63
2018-07-23T00:01:35.750Z,22.6
2018-07-23T00:02:35.940Z,22.62
2018-07-23T00:03:35.950Z,22.62
2018-07-23T00:04:35.942Z,22.59
2018-07-23T00:05:35.923Z,22.62
2018-07-23T00:06:36.060Z,22.6
2018-07-23T00:07:35.780Z,22.63
2018-07-23T00:08:35.809Z,22.62
2018-07-23T00:09:35.941Z,22.62
2018-07-23T00:10:35.718Z,22.63
2018-07-23T00:11:35.719Z,22.62
2018-07-23T00:12:35.786Z,22.6
2018-07-23T00:13:36.007Z,22.63
2018-07-23T00:14:35.957Z,22.62
2018-07-23T00:15:35.896Z,22.57
2018-07-23T00:16:35.834Z,22.6
2018-07-23T00:17:35.713Z,22.62
2018-07-23T00:18:35.790Z,22.6
2018-07-23T00:19:36.201Z,22.6
2018-07-23T00:20:35.817Z,22.62
2018-07-23T00:21:35.982Z,22.63
2018-07-23T00:22:35.944Z,22.63
2018-07-23T00:23:35.771Z,22.62
2018-07-23T00:24:36.182Z,22.6
2018-07-23T00:25:35.735Z,22.6
2018-07-23T00:26:35.927Z,22.62
2018-07-23T00:27:35.902Z,22.59
2018-07-23T00:28:35.813Z,22.62
2018-07-23T00:29:35.842Z,22.62
2018-07-23T00:30:35.832Z,22.59
2018-07-23T00:31:35.868Z,22.6
2018-07-23T00:32:35.991Z,22.63
2018-07-23T00:33:35.939Z,22.62
2018-07-23T00:34:35.925Z,22.6
2018-07-23T00:35:35.820Z,22.6
2018-07-23T00:36:35.774Z,22.62
2018-07-23T00:37:35.723Z,22.62
2018-07-23T00:38:35.847Z,22.62
2018-07-23T00:39:35.728Z,22.6
2018-07-23T00:40:35.923Z,22.62
2018-07-23T00:41:35.856Z,22.6
2018-07-23T00:42:35.777Z,22.6
2018-07-23T00:43:35.735Z,22.62
2018-07-23T00:44:35.737Z,22.6
2018-07-23T00:45:35.906Z,22.62
2018-07-23T00:46:35.740Z,22.59
2018-07-23T00:47:35.867Z,22.62
2018-07-23T00:48:35.830Z,22.6
2018-07-23T00:49:35.742Z,22.63
2018-07-23T00:50:35.753Z,22.6
2018-07-23T00:51:35.812Z,22.6
2018-07-23T00:52:35.938Z,22.63
2018-07-23T00:53:36.019Z,22.62
2018-07-23T00:54:35.781Z,22.62
2018-07-23T00:55:35.698Z,22.62
2018-07-23T00:56:35.794Z,22.62
2018-07-23T00:57:35.843Z,22.63
2018-07-23T00:58:35.901Z,22.6
2018-07-23T00:59:35.732Z,22.6
2018-07-23T01:00:35.745Z,22.6
2018-07-23T01:01:35.724Z,22.59
2018-07-23T01:02:35.972Z,22.62
2018-07-23T01:03:35.840Z,22.62
2018-07-23T01:04:35.697Z,22.62
2018-07-23T01:05:35.753Z,22.6
2018-07-23T01:06:36.166Z,22.59
2018-07-23T01:07:35.887Z,22.59
2018-07-23T01:08:35.850Z,22.62
2018-07-23T01:09:35.878Z,22.6
2018-07-23T01:10:35.791Z,22.6
2018-07-23T01:11:35.728Z,22.59
2018-07-23T01:12:35.847Z,22.6
2018-07-23T01:13:35.719Z,22.57
2018-07-23T01:14:35.738Z,22.59
2018-07-23T01:15:35.978Z,22.59
2018-07-23T01:16:35.891Z,22.6
2018-07-23T01:17:35.970Z,22.6
2018-07-23T01:18:35.783Z,22.6
2018-07-23T01:19:35.866Z,22.62
2018-07-23T01:20:35.945Z,22.57
2018-07-23T01:21:35.683Z,22.59
2018-07-23T01:22:35.683Z,22.6
2018-07-23T01:23:35.865Z,22.59
2018-07-23T01:24:35.967Z,22.57
2018-07-23T01:25:35.796Z,22.59
2018-07-23T01:26:36.033Z,22.59
2018-07-23T01:27:35.729Z,22.59
2018-07-23T01:28:35.791Z,22.57
2018-07-23T01:29:35.867Z,22.59
2018-07-23T01:30:35.784Z,22.62
2018-07-23T01:31:35.804Z,22.59
2018-07-23T01:32:36.088Z,22.56
2018-07-23T01:33:35.825Z,22.57
2018-07-23T01:34:35.748Z,22.57
2018-07-23T01:35:35.875Z,22.59
2018-07-23T01:36:36.048Z,22.57
2018-07-23T01:37:35.960Z,22.57
2018-07-23T01:38:35.800Z,22.59
2018-07-23T01:39:35.962Z,22.56
2018-07-23T01:40:35.635Z,22.57
2018-07-23T01:41:35.807Z,22.59
2018-07-23T01:42:35.741Z,22.57
2018-07-23T01:43:35.867Z,22.57
2018-07-23T01:44:35.945Z,22.57
2018-07-23T01:45:35.718Z,22.56
2018-07-23T01:46:35.856Z,22.54
2018-07-23T01:47:35.985Z,22.56
2018-07-23T01:48:35.715Z,22.57
2018-07-23T01:49:35.814Z,22.57
2018-07-23T01:50:35.820Z,22.56
2018-07-23T01:51:35.716Z,22.56
2018-07-23T01:52:35.875Z,22.57
2018-07-23T01:53:35.899Z,22.57
2018-07-23T01:54:35.812Z,22.57
2018-07-23T01:55:35.841Z,22.53
2018-07-23T01:56:35.843Z,22.57
2018-07-23T01:57:35.743Z,22.57
2018-07-23T01:58:35.657Z,22.57
2018-07-23T01:59:36.033Z,22.57
2018-07-23T02:00:35.682Z,22.56
2018-07-23T02:01:35.697Z,22.57
2018-07-23T02:02:35.741Z,22.54
2018-07-23T02:03:35.973Z,22.56
2018-07-23T02:04:35.722Z,22.53
2018-07-23T02:05:35.814Z,22.57
2018-07-23T02:06:35.838Z,22.54
2018-07-23T02:07:35.846Z,22.53
2018-07-23T02:08:35.904Z,22.57
2018-07-23T02:09:35.845Z,22.56
2018-07-23T02:10:35.892Z,22.54
2018-07-23T02:11:35.798Z,22.56
2018-07-23T02:12:35.871Z,22.54
2018-07-23T02:13:35.840Z,22.53
2018-07-23T02:14:35.862Z,22.56
2018-07-23T02:15:35.896Z,22.56
2018-07-23T02:16:35.656Z,22.56
2018-07-23T02:17:35.950Z,22.57
2018-07-23T02:18:35.995Z,22.51
2018-07-23T02:19:35.762Z,22.56
2018-07-23T02:20:35.965Z,22.54
2018-07-23T02:21:35.821Z,22.53
2018-07-23T02:22:35.917Z,22.53
2018-07-23T02:23:35.900Z,22.54
2018-07-23T02:24:35.728Z,22.53
2018-07-23T02:25:35.676Z,22.56
2018-07-23T02:26:36.393Z,22.56
2018-07-23T02:27:35.670Z,22.54
2018-07-23T02:28:36.445Z,22.56
2018-07-23T02:29:35.908Z,22.56
2018-07-23T02:30:35.769Z,22.54
2018-07-23T02:31:36.148Z,22.53
2018-07-23T02:32:35.789Z,22.54
2018-07-23T02:33:35.771Z,22.54
2018-07-23T02:34:35.644Z,22.53
2018-07-23T02:35:35.787Z,22.53
2018-07-23T02:36:35.831Z,22.54
2018-07-23T02:37:35.739Z,22.54
2018-07-23T02:38:35.700Z,22.54
2018-07-23T02:39:35.793Z,22.53
2018-07-23T02:40:35.864Z,22.54
2018-07-23T02:41:35.749Z,22.54
2018-07-23T02:42:35.855Z,22.53
2018-07-23T02:43:36.142Z,22.53
2018-07-23T02:44:35.786Z,22.54
2018-07-23T02:45:35.873Z,22.54
2018-07-23T02:46:35.798Z,22.54
2018-07-23T02:47:35.765Z,22.53
2018-07-23T02:48:35.851Z,22.56
2018-07-23T02:49:35.777Z,22.51
2018-07-23T02:50:35.964Z,22.53
2018-07-23T02:51:35.799Z,22.53
2018-07-23T02:52:35.681Z,22.54
2018-07-23T02:53:35.893Z,22.53
2018-07-23T02:54:35.707Z,22.53
2018-07-23T02:55:35.892Z,22.54
2018-07-23T02:56:35.824Z,22.56
2018-07-23T02:57:35.807Z,22.53
2018-07-23T02:58:35.729Z,22.53
2018-07-23T02:59:36.348Z,22.53
2018-07-23T03:00:35.775Z,22.53
2018-07-23T03:01:35.832Z,22.51
2018-07-23T03:02:35.789Z,22.53
2018-07-23T03:03:36.064Z,22.53
2018-07-23T03:04:35.612Z,22.54
2018-07-23T03:05:35.943Z,22.53
2018-07-23T03:06:35.694Z,22.54
2018-07-23T03:07:35.988Z,22.54
2018-07-23T03:08:35.966Z,22.53
2018-07-23T03:09:35.843Z,22.53
2018-07-23T03:10:35.648Z,22.53
2018-07-23T03:11:35.768Z,22.54
2018-07-23T03:12:35.819Z,22.53
2018-07-23T03:13:35.786Z,22.51
2018-07-23T03:14:35.660Z,22.53
2018-07-23T03:15:35.712Z,22.51
2018-07-23T03:16:35.798Z,22.53
2018-07-23T03:17:35.699Z,22.51
2018-07-23T03:18:35.907Z,22.54
2018-07-23T03:19:35.801Z,22.54
2018-07-23T03:20:35.837Z,22.51
2018-07-23T03:21:36.223Z,22.51
2018-07-23T03:22:35.663Z,22.54
2018-07-23T03:23:35.664Z,22.53
2018-07-23T03:24:35.840Z,22.53
2018-07-23T03:25:35.699Z,22.54
2018-07-23T03:26:35.764Z,22.53
2018-07-23T03:27:35.801Z,22.53
2018-07-23T03:28:35.656Z,22.51
2018-07-23T03:29:35.706Z,22.5
2018-07-23T03:30:35.876Z,22.51
2018-07-23T03:31:35.830Z,22.51
2018-07-23T03:32:35.683Z,22.51
2018-07-23T03:33:36.040Z,22.49
2018-07-23T03:34:35.844Z,22.53
2018-07-23T03:35:35.628Z,22.51
2018-07-23T03:36:35.789Z,22.53
2018-07-23T03:37:35.807Z,22.51
2018-07-23T03:38:35.871Z,22.54
2018-07-23T03:39:35.652Z,22.51
2018-07-23T03:40:35.702Z,22.5
2018-07-23T03:41:35.910Z,22.53
2018-07-23T03:42:35.711Z,22.51
2018-07-23T03:43:35.750Z,22.49
2018-07-23T03:44:35.725Z,22.51
2018-07-23T03:45:35.716Z,22.53
2018-07-23T03:46:35.757Z,22.5
2018-07-23T03:47:35.754Z,22.51
2018-07-23T03:48:35.718Z,22.51
2018-07-23T03:49:35.599Z,22.5
2018-07-23T03:50:35.924Z,22.49
2018-07-23T03:51:35.674Z,22.5
2018-07-23T03:52:35.953Z,22.5
2018-07-23T03:53:35.780Z,22.51
2018-07-23T03:54:35.857Z,22.49
2018-07-23T03:55:35.656Z,22.5
2018-07-23T03:56:35.874Z,22.5
2018-07-23T03:57:35.745Z,22.51
2018-07-23T03:58:35.944Z,22.5
2018-07-23T03:59:35.757Z,22.51
2018-07-23T04:00:35.776Z,22.51
2018-07-23T04:01:35.708Z,22.5
2018-07-23T04:02:35.712Z,22.49
2018-07-23T04:03:37.390Z,22.5
2018-07-23T04:04:35.657Z,22.51
2018-07-23T04:05:35.852Z,22.53
2018-07-23T04:06:35.807Z,22.51
2018-07-23T04:07:36.106Z,22.51
2018-07-23T04:08:35.731Z,22.51
2018-07-23T04:09:35.954Z,22.5
2018-07-23T04:10:35.756Z,22.5
2018-07-23T04:11:35.641Z,22.51
2018-07-23T04:12:35.774Z,22.5
2018-07-23T04:13:35.709Z,22.51
2018-07-23T04:14:35.638Z,22.53
2018-07-23T04:15:35.640Z,22.51
2018-07-23T04:16:35.799Z,22.49
2018-07-23T04:17:37.105Z,22.51
2018-07-23T04:18:35.674Z,22.5
2018-07-23T04:19:35.768Z,22.49
2018-07-23T04:20:35.876Z,22.5
2018-07-23T04:21:35.784Z,22.5
2018-07-23T04:22:35.655Z,22.5
2018-07-23T04:23:35.839Z,22.5
2018-07-23T04:24:35.811Z,22.49
2018-07-23T04:25:35.785Z,22.49
2018-07-23T04:26:35.933Z,22.49
2018-07-23T04:27:35.891Z,22.47
2018-07-23T04:28:35.677Z,22.5
2018-07-23T04:29:35.763Z,22.5
2018-07-23T04:30:35.660Z,22.51
2018-07-23T04:31:35.619Z,22.49
2018-07-23T04:32:35.687Z,22.5
2018-07-23T04:33:35.743Z,22.51
2018-07-23T04:34:35.722Z,22.49
2018-07-23T04:35:35.834Z,22.49
2018-07-23T04:36:35.906Z,22.51
2018-07-23T04:37:35.814Z,22.49
2018-07-23T04:38:35.808Z,22.49
2018-07-23T04:39:35.876Z,22.51
2018-07-23T04:40:35.600Z,22.49
2018-07-23T04:41:35.834Z,22.49
2018-07-23T04:42:35.647Z,22.49
2018-07-23T04:43:35.609Z,22.49
2018-07-23T04:44:35.664Z,22.49
2018-07-23T04:45:35.866Z,22.49
2018-07-23T04:46:35.614Z,22.49
2018-07-23T04:47:35.711Z,22.49
2018-07-23T04:48:35.940Z,22.49
2018-07-23T04:49:35.670Z,22.47
2018-07-23T04:50:36.472Z,22.49
2018-07-23T04:51:35.846Z,22.5
2018-07-23T04:52:35.803Z,22.49
2018-07-23T04:53:35.737Z,22.49
2018-07-23T04:54:35.765Z,22.49
2018-07-23T04:55:35.644Z,22.49
2018-07-23T04:56:36.418Z,22.49
2018-07-23T04:57:35.701Z,22.5
2018-07-23T04:58:35.813Z,22.47
2018-07-23T04:59:35.705Z,22.49
2018-07-23T05:00:35.871Z,22.49
2018-07-23T05:01:35.748Z,22.49
2018-07-23T05:02:35.937Z,22.5
2018-07-23T05:03:35.759Z,22.47
2018-07-23T05:04:35.892Z,22.47
2018-07-23T05:05:35.840Z,22.46
2018-07-23T05:06:35.796Z,22.5
2018-07-23T05:07:35.664Z,22.49
2018-07-23T05:08:36.460Z,22.47
2018-07-23T05:09:35.852Z,22.47
2018-07-23T05:10:35.741Z,22.47
2018-07-23T05:11:35.614Z,22.47
2018-07-23T05:12:35.896Z,22.47
2018-07-23T05:13:35.946Z,22.46
2018-07-23T05:14:35.599Z,22.47
2018-07-23T05:15:35.850Z,22.49
2018-07-23T05:16:35.916Z,22.46
2018-07-23T05:17:35.694Z,22.47
2018-07-23T05:18:35.740Z,22.47
2018-07-23T05:19:35.632Z,22.47
2018-07-23T05:20:35.708Z,22.46
2018-07-23T05:21:35.797Z,22.46
2018-07-23T05:22:35.842Z,22.46
2018-07-23T05:23:35.666Z,22.46
2018-07-23T05:24:36.897Z,22.47
2018-07-23T05:25:35.717Z,22.47
2018-07-23T05:26:35.862Z,22.49
2018-07-23T05:27:35.819Z,22.47
2018-07-23T05:28:35.708Z,22.46
2018-07-23T05:29:35.808Z,22.47
2018-07-23T05:30:35.729Z,22.49
2018-07-23T05:31:35.876Z,22.49
2018-07-23T05:32:35.838Z,22.44
2018-07-23T05:33:35.727Z,22.46
2018-07-23T05:34:35.778Z,22.46
2018-07-23T05:35:35.800Z,22.47
2018-07-23T05:36:35.857Z,22.44
2018-07-23T05:37:35.696Z,22.44
2018-07-23T05:38:36.342Z,22.46
2018-07-23T05:39:35.716Z,22.47
2018-07-23T05:40:35.652Z,22.47
2018-07-23T05:41:35.783Z,22.47
2018-07-23T05:42:35.715Z,22.46
2018-07-23T05:43:35.629Z,22.47
2018-07-23T05:44:35.649Z,22.47
2018-07-23T05:45:35.756Z,22.46
2018-07-23T05:46:35.799Z,22.44
2018-07-23T05:47:35.802Z,22.49
2018-07-23T05:48:35.633Z,22.47
2018-07-23T05:49:35.788Z,22.47
2018-07-23T05:50:35.833Z,22.46
2018-07-23T05:51:35.851Z,22.46
2018-07-23T05:52:35.621Z,22.46
2018-07-23T05:53:35.652Z,22.47
2018-07-23T05:54:35.516Z,22.47
2018-07-23T05:55:35.780Z,22.47
2018-07-23T05:56:35.742Z,22.47
2018-07-23T05:57:36.335Z,22.46
2018-07-23T05:58:35.750Z,22.46
2018-07-23T05:59:35.979Z,22.47
2018-07-23T06:00:35.755Z,22.47
2018-07-23T06:01:35.613Z,22.46
2018-07-23T06:02:35.700Z,22.47
2018-07-23T06:03:36.237Z,22.47
2018-07-23T06:04:35.789Z,22.44
2018-07-23T06:05:35.904Z,22.46
2018-07-23T06:06:36.464Z,22.44
2018-07-23T06:07:35.744Z,22.47
2018-07-23T06:08:36.070Z,22.46
2018-07-23T06:09:35.684Z,22.46
2018-07-23T06:10:35.730Z,22.46
2018-07-23T06:11:35.769Z,22.47
2018-07-23T06:12:35.762Z,22.46
2018-07-23T06:13:36.702Z,22.46
2018-07-23T06:14:35.812Z,22.44
2018-07-23T06:15:35.864Z,22.46
2018-07-23T06:16:35.681Z,22.46
2018-07-23T06:17:35.703Z,22.46
2018-07-23T06:18:35.743Z,22.43
2018-07-23T06:19:35.740Z,22.44
2018-07-23T06:20:35.725Z,22.46
2018-07-23T06:21:35.709Z,22.46
2018-07-23T06:22:35.678Z,22.44
2018-07-23T06:23:35.703Z,22.47
2018-07-23T06:24:35.714Z,22.44
2018-07-23T06:25:35.921Z,22.43
2018-07-23T06:26:35.660Z,22.44
2018-07-23T06:27:36.059Z,22.43
2018-07-23T06:28:35.568Z,22.44
2018-07-23T06:29:35.779Z,22.44
2018-07-23T06:30:35.802Z,22.43
2018-07-23T06:31:35.774Z,22.44
2018-07-23T06:32:35.818Z,22.43
2018-07-23T06:33:35.784Z,22.43
2018-07-23T06:34:36.166Z,22.44
2018-07-23T06:35:35.699Z,22.43
2018-07-23T06:36:35.702Z,22.43
2018-07-23T06:37:36.113Z,22.44
2018-07-23T06:38:35.745Z,22.43
2018-07-23T06:39:35.706Z,22.43
2018-07-23T06:40:35.778Z,22.43
2018-07-23T06:41:35.924Z,22.4
2018-07-23T06:42:35.566Z,22.42
2018-07-23T06:43:35.821Z,22.44
2018-07-23T06:44:35.655Z,22.44
2018-07-23T06:45:35.703Z,22.44
2018-07-23T06:46:36.408Z,22.43
2018-07-23T06:47:35.686Z,22.46
2018-07-23T06:48:35.672Z,22.43
2018-07-23T06:49:35.661Z,22.42
2018-07-23T06:50:35.805Z,22.43
2018-07-23T06:51:35.949Z,22.43
2018-07-23T06:52:35.698Z,22.43
2018-07-23T06:53:35.649Z,22.43
2018-07-23T06:54:35.767Z,22.43
2018-07-23T06:55:35.628Z,22.46
2018-07-23T06:56:35.660Z,22.43
2018-07-23T06:57:35.782Z,22.44
2018-07-23T06:58:35.707Z,22.44
2018-07-23T06:59:35.774Z,22.43
2018-07-23T07:00:36.176Z,22.42
2018-07-23T07:01:35.622Z,22.44
2018-07-23T07:02:35.954Z,22.43
2018-07-23T07:03:35.627Z,22.43
2018-07-23T07:04:35.548Z,22.44
2018-07-23T07:05:35.697Z,22.42
2018-07-23T07:06:35.637Z,22.44
2018-07-23T07:07:35.592Z,22.42
2018-07-23T07:08:35.630Z,22.46
2018-07-23T07:09:35.755Z,22.4
2018-07-23T07:10:35.777Z,22.44
2018-07-23T07:11:35.601Z,22.43
2018-07-23T07:12:35.661Z,22.44
2018-07-23T07:13:36.472Z,22.43
2018-07-23T07:14:35.652Z,22.43
2018-07-23T07:15:35.683Z,22.43
2018-07-23T07:16:35.631Z,22.43
2018-07-23T07:17:35.663Z,22.42
2018-07-23T07:18:35.685Z,22.43
2018-07-23T07:19:35.635Z,22.42
2018-07-23T07:20:35.818Z,22.43
2018-07-23T07:21:35.766Z,22.42
2018-07-23T07:22:35.607Z,22.46
2018-07-23T07:23:35.716Z,22.44
2018-07-23T07:24:35.516Z,22.43
2018-07-23T07:25:35.676Z,22.42
2018-07-23T07:26:35.710Z,22.42
2018-07-23T07:27:35.784Z,22.4
2018-07-23T07:28:35.646Z,22.43
2018-07-23T07:29:35.677Z,22.44
2018-07-23T07:30:35.792Z,22.44
2018-07-23T07:31:35.832Z,22.47
2018-07-23T07:32:35.763Z,22.49
2018-07-23T07:33:35.953Z,22.49
2018-07-23T07:34:35.798Z,22.5
2018-07-23T07:35:35.503Z,22.49
2018-07-23T07:36:35.705Z,22.49
2018-07-23T07:37:35.682Z,22.5
2018-07-23T07:38:35.753Z,22.51
2018-07-23T07:39:35.791Z,22.51
2018-07-23T07:40:35.653Z,22.51
2018-07-23T07:41:35.742Z,22.54
2018-07-23T07:42:35.721Z,22.53
2018-07-23T07:43:35.699Z,22.51
2018-07-23T07:44:35.769Z,22.56
2018-07-23T07:45:35.845Z,22.51
2018-07-23T07:46:36.610Z,22.53
2018-07-23T07:47:35.621Z,22.51
2018-07-23T07:48:35.805Z,22.47
2018-07-23T07:49:35.849Z,22.46
2018-07-23T07:50:35.736Z,22.47
2018-07-23T07:51:35.878Z,22.5
2018-07-23T07:52:35.695Z,22.5
2018-07-23T07:53:35.781Z,22.49
2018-07-23T07:54:35.940Z,22.49
2018-07-23T07:55:35.704Z,22.49
2018-07-23T07:56:35.881Z,22.47
2018-07-23T07:57:35.678Z,22.47
2018-07-23T07:58:35.841Z,22.44
2018-07-23T07:59:35.692Z,22.47
2018-07-23T08:00:35.788Z,22.49
2018-07-23T08:01:35.693Z,22.47
2018-07-23T08:02:35.809Z,22.51
2018-07-23T08:03:35.715Z,22.49
2018-07-23T08:04:35.634Z,22.49
2018-07-23T08:05:35.718Z,22.5
2018-07-23T08:06:35.583Z,22.49
2018-07-23T08:07:35.649Z,22.47
2018-07-23T08:08:35.692Z,22.49
2018-07-23T08:09:35.798Z,22.47
2018-07-23T08:10:35.746Z,22.49
2018-07-23T08:11:35.721Z,22.47
2018-07-23T08:12:36.803Z,22.47
2018-07-23T08:13:35.518Z,22.47
2018-07-23T08:14:36.124Z,22.49
2018-07-23T08:15:35.579Z,22.47
2018-07-23T08:16:35.605Z,22.46
2018-07-23T08:17:35.740Z,22.5
2018-07-23T08:18:35.744Z,22.49
2018-07-23T08:19:35.737Z,22.47
2018-07-23T08:20:35.759Z,22.47
2018-07-23T08:21:35.863Z,22.47
2018-07-23T08:22:35.814Z,22.46
2018-07-23T08:23:35.638Z,22.49
2018-07-23T08:24:35.689Z,22.47
2018-07-23T08:25:35.609Z,22.47
2018-07-23T08:26:35.752Z,22.46
2018-07-23T08:27:35.782Z,22.5
2018-07-23T08:28:35.660Z,22.47
2018-07-23T08:29:35.641Z,22.46
2018-07-23T08:30:35.719Z,22.46
2018-07-23T08:31:36.796Z,22.47
2018-07-23T08:32:35.962Z,22.47
2018-07-23T08:33:35.711Z,22.47
2018-07-23T08:34:35.644Z,22.46
2018-07-23T08:35:35.643Z,22.49
2018-07-23T08:36:35.499Z,22.47
2018-07-23T08:37:35.618Z,22.46
2018-07-23T08:38:36.561Z,22.47
2018-07-23T08:39:35.863Z,22.46
2018-07-23T08:40:35.664Z,22.46
2018-07-23T08:41:35.796Z,22.47
2018-07-23T08:42:35.616Z,22.44
2018-07-23T08:43:35.533Z,22.46
2018-07-23T08:44:35.744Z,22.5
2018-07-23T08:45:35.710Z,22.49
2018-07-23T08:46:35.754Z,22.46
2018-07-23T08:47:35.903Z,22.46
2018-07-23T08:48:36.294Z,22.47
2018-07-23T08:49:35.628Z,22.47
2018-07-23T08:50:35.716Z,22.49
2018-07-23T08:51:35.675Z,22.47
2018-07-23T08:52:45.753Z,22.49
2018-07-23T08:53:35.773Z,22.44
2018-07-23T08:54:35.998Z,22.44
2018-07-23T08:55:35.441Z,22.44
2018-07-23T08:56:35.696Z,22.46
2018-07-23T08:57:35.716Z,22.47
2018-07-23T08:58:35.696Z,22.47
2018-07-23T08:59:35.689Z,22.47
2018-07-23T09:00:35.804Z,22.47
2018-07-23T09:01:35.509Z,22.47
2018-07-23T09:02:35.785Z,22.47
2018-07-23T09:03:35.593Z,22.47
2018-07-23T09:04:35.515Z,22.46
2018-07-23T09:05:35.972Z,22.47
2018-07-23T09:06:35.622Z,22.51
2018-07-23T09:07:35.824Z,22.49
2018-07-23T09:08:36.802Z,22.49
2018-07-23T09:09:35.803Z,22.5
2018-07-23T09:10:35.590Z,22.5
2018-07-23T09:11:35.676Z,22.5
2018-07-23T09:12:35.749Z,22.47
2018-07-23T09:13:35.896Z,22.47
2018-07-23T09:14:35.893Z,22.5
2018-07-23T09:15:35.843Z,22.5
2018-07-23T09:16:35.838Z,22.51
2018-07-23T09:17:35.828Z,22.49
2018-07-23T09:18:35.766Z,22.49
2018-07-23T09:19:45.737Z,22.47
2018-07-23T09:20:35.734Z,22.49
2018-07-23T09:21:35.514Z,22.46
2018-07-23T09:22:35.805Z,22.47
2018-07-23T09:23:35.833Z,22.47
2018-07-23T09:24:35.782Z,22.49
2018-07-23T09:25:35.705Z,22.47
2018-07-23T09:26:35.880Z,22.5
2018-07-23T09:27:35.680Z,22.49
2018-07-23T09:28:35.444Z,22.47
2018-07-23T09:29:35.659Z,22.5
2018-07-23T09:30:35.729Z,22.49
2018-07-23T09:31:35.730Z,22.49
2018-07-23T09:32:35.633Z,22.49
2018-07-23T09:33:35.675Z,22.51
2018-07-23T09:34:35.754Z,22.49
2018-07-23T09:35:35.711Z,22.47
2018-07-23T09:36:35.970Z,22.49
2018-07-23T09:37:35.629Z,22.49
2018-07-23T09:38:36.347Z,22.47
2018-07-23T09:39:35.651Z,22.47
2018-07-23T09:40:35.838Z,22.46
2018-07-23T09:41:35.590Z,22.5
2018-07-23T09:42:35.630Z,22.46
2018-07-23T09:43:35.924Z,22.47
2018-07-23T09:44:35.635Z,22.49
2018-07-23T09:45:36.500Z,22.49
2018-07-23T09:46:35.696Z,22.47
2018-07-23T09:47:35.609Z,22.46
2018-07-23T09:48:35.722Z,22.47
2018-07-23T09:49:35.736Z,22.47
2018-07-23T09:50:35.671Z,22.49
2018-07-23T09:51:35.711Z,22.44
2018-07-23T09:52:36.409Z,22.47
2018-07-23T09:53:35.600Z,22.46
2018-07-23T09:54:36.039Z,22.46
2018-07-23T09:55:35.512Z,22.47
2018-07-23T09:56:35.709Z,22.47
2018-07-23T09:57:35.623Z,22.46
2018-07-23T09:58:35.972Z,22.47
2018-07-23T09:59:35.697Z,22.47
2018-07-23T10:00:35.749Z,22.47
2018-07-23T10:01:35.763Z,22.49
2018-07-23T10:02:35.837Z,22.46
2018-07-23T10:03:36.493Z,22.5
2018-07-23T10:04:35.628Z,22.5
2018-07-23T10:05:35.784Z,22.47
2018-07-23T10:06:35.966Z,22.47
2018-07-23T10:07:35.960Z,22.49
2018-07-23T10:08:35.702Z,22.47
2018-07-23T10:09:35.704Z,22.5
2018-07-23T10:10:35.730Z,22.46
2018-07-23T10:11:35.843Z,22.46
2018-07-23T10:12:35.582Z,22.47
2018-07-23T10:13:35.525Z,22.46
2018-07-23T10:14:35.846Z,22.46
2018-07-23T10:15:35.960Z,22.47
2018-07-23T10:16:35.921Z,22.49
2018-07-23T10:17:35.848Z,22.47
2018-07-23T10:18:35.585Z,22.46
2018-07-23T10:19:35.910Z,22.46
2018-07-23T10:20:35.609Z,22.46
2018-07-23T10:21:35.875Z,22.46
2018-07-23T10:22:35.702Z,22.46
2018-07-23T10:23:35.941Z,22.44
2018-07-23T10:24:36.788Z,22.47
2018-07-23T10:25:36.336Z,22.47
2018-07-23T10:26:35.948Z,22.46
2018-07-23T10:27:36.407Z,22.47
2018-07-23T10:28:36.596Z,22.46
2018-07-23T10:29:37.064Z,22.46
2018-07-23T10:30:35.992Z,22.46
2018-07-23T10:31:36.021Z,22.47
2018-07-23T10:32:35.945Z,22.46
2018-07-23T10:33:36.264Z,22.47
2018-07-23T10:34:36.188Z,22.46
2018-07-23T10:35:35.764Z,22.47
2018-07-23T10:36:35.680Z,22.46
2018-07-23T10:37:37.231Z,22.44
2018-07-23T10:38:35.727Z,22.46
2018-07-23T10:39:35.833Z,22.44
2018-07-23T10:40:35.455Z,22.46
2018-07-23T10:41:35.700Z,22.46
2018-07-23T10:42:35.710Z,22.44
2018-07-23T10:43:35.685Z,22.44
2018-07-23T10:44:35.822Z,22.47
2018-07-23T10:45:35.752Z,22.47
2018-07-23T10:46:35.519Z,22.43
2018-07-23T10:47:35.503Z,22.46
2018-07-23T10:48:35.543Z,22.47
2018-07-23T10:49:35.593Z,22.47
2018-07-23T10:50:35.642Z,22.46
2018-07-23T10:51:35.683Z,22.44
2018-07-23T10:52:35.732Z,22.44
2018-07-23T10:53:35.803Z,22.44
2018-07-23T10:54:35.593Z,22.46
2018-07-23T10:55:35.589Z,22.44
2018-07-23T10:56:35.637Z,22.46
2018-07-23T10:57:35.614Z,22.46
2018-07-23T10:58:35.456Z,22.47
2018-07-23T10:59:35.689Z,22.46
2018-07-23T11:00:35.696Z,22.44
2018-07-23T11:01:35.669Z,22.44
2018-07-23T11:02:35.819Z,22.44
2018-07-23T11:03:35.486Z,22.44
2018-07-23T11:04:35.843Z,22.46
2018-07-23T11:05:35.961Z,22.46
2018-07-23T11:06:35.723Z,22.47
2018-07-23T11:07:35.763Z,22.46
2018-07-23T11:08:35.680Z,22.47
2018-07-23T11:09:35.667Z,22.49
2018-07-23T11:10:35.630Z,22.49
2018-07-23T11:11:35.790Z,22.51
2018-07-23T11:12:37.413Z,22.51
2018-07-23T11:13:35.894Z,22.53
2018-07-23T11:14:35.663Z,22.51
2018-07-23T11:15:35.575Z,22.5
2018-07-23T11:16:35.612Z,22.53
2018-07-23T11:17:35.678Z,22.53
2018-07-23T11:18:35.694Z,22.56
2018-07-23T11:19:36.074Z,22.54
2018-07-23T11:20:35.926Z,22.54
2018-07-23T11:21:35.606Z,22.57
2018-07-23T11:22:35.713Z,22.56
2018-07-23T11:23:35.550Z,22.57
2018-07-23T11:24:36.417Z,22.54
2018-07-23T11:25:41.380Z,22.56
2018-07-23T11:26:36.582Z,22.59
2018-07-23T11:27:35.784Z,22.6
2018-07-23T11:28:35.673Z,22.6
2018-07-23T11:29:36.669Z,22.63
2018-07-23T11:30:36.053Z,22.62
2018-07-23T11:31:35.731Z,22.6
2018-07-23T11:32:35.957Z,22.62
2018-07-23T11:33:36.074Z,22.59
2018-07-23T11:34:35.469Z,22.57
2018-07-23T11:35:35.659Z,22.59
2018-07-23T11:36:36.409Z,22.59
2018-07-23T11:37:35.955Z,22.63
2018-07-23T11:38:35.930Z,22.62
2018-07-23T11:39:36.252Z,22.59
2018-07-23T11:40:35.591Z,22.6
2018-07-23T11:41:36.106Z,22.63
2018-07-23T11:42:35.873Z,22.59
2018-07-23T11:43:35.352Z,22.59
2018-07-23T11:44:35.446Z,22.57
2018-07-23T11:45:35.950Z,22.59
2018-07-23T11:46:35.529Z,22.57
2018-07-23T11:47:35.567Z,22.59
2018-07-23T11:48:35.758Z,22.59
2018-07-23T11:49:35.624Z,22.57
2018-07-23T11:50:35.599Z,22.56
2018-07-23T11:51:35.872Z,22.57
2018-07-23T11:52:35.438Z,22.57
2018-07-23T11:53:36.587Z,22.59
2018-07-23T11:54:35.667Z,22.59
2018-07-23T11:55:35.527Z,22.54
2018-07-23T11:56:36.236Z,22.56
2018-07-23T11:57:35.614Z,22.57
2018-07-23T11:58:35.819Z,22.54
2018-07-23T11:59:35.659Z,22.59
2018-07-23T12:00:35.829Z,22.56
2018-07-23T12:01:35.432Z,22.53
2018-07-23T12:02:35.545Z,22.54
2018-07-23T12:03:35.751Z,22.54
2018-07-23T12:04:37.930Z,22.51
2018-07-23T12:05:35.661Z,22.51
2018-07-23T12:06:35.569Z,22.5
2018-07-23T12:07:35.533Z,22.49
2018-07-23T12:08:35.629Z,22.46
2018-07-23T12:09:35.721Z,22.49
2018-07-23T12:10:35.441Z,22.46
2018-07-23T12:11:35.606Z,22.47
2018-07-23T12:12:35.647Z,22.46
2018-07-23T12:13:35.386Z,22.44
2018-07-23T12:14:35.665Z,22.46
2018-07-23T12:15:35.772Z,22.46
2018-07-23T12:16:35.482Z,22.46
2018-07-23T12:17:36.659Z,22.43
2018-07-23T12:18:35.663Z,22.44
2018-07-23T12:19:35.416Z,22.44
2018-07-23T12:20:35.563Z,22.42
2018-07-23T12:21:35.454Z,22.44
2018-07-23T12:22:35.737Z,22.44
2018-07-23T12:23:35.736Z,22.44
2018-07-23T12:24:35.640Z,22.43
2018-07-23T12:25:35.700Z,22.46
2018-07-23T12:26:35.543Z,22.43
2018-07-23T12:27:35.509Z,22.44
2018-07-23T12:28:35.452Z,22.44
2018-07-23T12:29:35.674Z,22.44
2018-07-23T12:30:35.836Z,22.43
2018-07-23T12:31:35.931Z,22.42
2018-07-23T12:32:35.747Z,22.43
2018-07-23T12:33:35.739Z,22.42
2018-07-23T12:34:35.599Z,22.42
2018-07-23T12:35:35.685Z,22.43
2018-07-23T12:36:35.810Z,22.42
2018-07-23T12:37:35.459Z,22.4
2018-07-23T12:38:35.676Z,22.42
2018-07-23T12:39:36.161Z,22.4
2018-07-23T12:40:35.506Z,22.4
2018-07-23T12:41:35.647Z,22.39
2018-07-23T12:42:35.534Z,22.4
2018-07-23T12:43:35.648Z,22.42
2018-07-23T12:44:35.439Z,22.4
2018-07-23T12:45:35.617Z,22.42
2018-07-23T12:46:35.727Z,22.39
2018-07-23T12:47:35.479Z,22.42
2018-07-23T12:48:35.673Z,22.42
2018-07-23T12:49:35.893Z,22.39
2018-07-23T12:50:35.608Z,22.4
2018-07-23T12:51:35.875Z,22.4
2018-07-23T12:52:36.396Z,22.42
2018-07-23T12:53:35.697Z,22.38
2018-07-23T12:54:35.761Z,22.39
2018-07-23T12:55:35.459Z,22.39